createdAt,value
2022-11-24T00:01:12.211Z,100370.69
2022-11-24T00:03:39.409Z,100373.78
2022-11-24T00:06:09.289Z,100370.16
2022-11-24T00:08:37.678Z,100361.56
2022-11-24T00:11:07.453Z,100358.16
2022-11-24T00:13:35.247Z,100368.53
2022-11-24T00:16:27.399Z,100384.59
2022-11-24T00:18:56.378Z,100399.13
2022-11-24T00:21:24.902Z,100404.81
2022-11-24T00:23:52.974Z,100395.75
2022-11-24T00:26:25.033Z,100398.09
2022-11-24T00:28:53.727Z,100394.97
2022-11-24T00:31:35.488Z,100399.66
2022-11-24T00:34:05.327Z,100400.44
2022-11-24T00:36:34.274Z,100392.41
2022-11-24T00:39:04.219Z,100398.66
2022-11-24T00:41:31.534Z,100400.97
2022-11-24T00:43:59.412Z,100390.06
2022-11-24T00:46:27.594Z,100399.13
2022-11-24T00:48:55.094Z,100400.44
2022-11-24T00:51:30.406Z,100399.16
2022-11-24T00:53:58.717Z,100408.25
2022-11-24T00:56:26.834Z,100412.16
2022-11-24T00:58:54.059Z,100418.66
2022-11-24T01:01:26.348Z,100417.88
2022-11-24T01:03:55.450Z,100418.94
2022-11-24T01:06:25.160Z,100421.03
2022-11-24T01:08:52.834Z,100427.28
2022-11-24T01:11:25.761Z,100427.28
2022-11-24T01:13:55.528Z,100421.59
2022-11-24T01:16:29.946Z,100428.84
2022-11-24T01:18:57.363Z,100421.34
2022-11-24T01:21:24.709Z,100434.56
2022-11-24T01:23:51.683Z,100442.34
2022-11-24T01:26:22.950Z,100447.78
2022-11-24T01:28:54.131Z,100446.25
2022-11-24T01:31:21.228Z,100439.25
2022-11-24T01:33:48.256Z,100444.16
2022-11-24T01:36:15.165Z,100441.81
2022-11-24T01:38:42.137Z,100440.03
2022-11-24T01:41:18.431Z,100446.25
2022-11-24T01:43:46.312Z,100443.41
2022-11-24T01:46:28.346Z,100446.00
2022-11-24T01:49:21.067Z,100445.47
2022-11-24T01:52:17.062Z,100451.97
2022-11-24T01:54:51.949Z,100453.78
2022-11-24T01:57:25.245Z,100443.41
2022-11-24T01:59:57.468Z,100458.41
2022-11-24T02:02:26.330Z,100455.34
2022-11-24T02:04:53.874Z,100463.09
2022-11-24T02:07:21.097Z,100460.75
2022-11-24T02:10:02.034Z,100455.81
2022-11-24T02:12:29.134Z,100450.13
2022-11-24T02:14:56.898Z,100465.66
2022-11-24T02:17:23.898Z,100471.59
2022-11-24T02:20:00.664Z,100469.53
2022-11-24T02:22:27.604Z,100471.31
2022-11-24T02:25:24.125Z,100473.91
2022-11-24T02:27:54.063Z,100464.81
2022-11-24T02:30:21.470Z,100475.94
2022-11-24T02:32:48.389Z,100467.63
2022-11-24T02:35:17.354Z,100478.00
2022-11-24T02:37:44.335Z,100472.56
2022-11-24T02:40:11.645Z,100486.03
2022-11-24T02:42:44.529Z,100481.63
2022-11-24T02:45:12.502Z,100489.91
2022-11-24T02:47:39.371Z,100490.97
2022-11-24T02:50:07.097Z,100490.19
2022-11-24T02:52:34.237Z,100489.91
2022-11-24T02:55:01.169Z,100492.25
2022-11-24T02:57:28.157Z,100493.00
2022-11-24T02:59:55.092Z,100490.19
2022-11-24T03:02:24.741Z,100494.34
2022-11-24T03:04:51.704Z,100486.03
2022-11-24T03:07:18.805Z,100485.75
2022-11-24T03:09:45.915Z,100494.84
2022-11-24T03:12:12.807Z,100490.16
2022-11-24T03:14:39.672Z,100481.59
2022-11-24T03:17:07.229Z,100477.94
2022-11-24T03:19:34.225Z,100483.13
2022-11-24T03:22:01.212Z,100486.50
2022-11-24T03:24:28.216Z,100496.09
2022-11-24T03:26:55.123Z,100489.09
2022-11-24T03:29:23.084Z,100498.16
2022-11-24T03:31:51.250Z,100497.13
2022-11-24T03:34:18.298Z,100486.72
2022-11-24T03:36:45.150Z,100497.13
2022-11-24T03:39:12.227Z,100503.84
2022-11-24T03:41:39.099Z,100500.50
2022-11-24T03:44:06.090Z,100500.25
2022-11-24T03:46:33.529Z,100506.50
2022-11-24T03:49:00.561Z,100499.72
2022-11-24T03:51:27.515Z,100513.78
2022-11-24T03:53:54.487Z,100504.91
2022-11-24T03:56:21.420Z,100515.31
2022-11-24T03:58:48.335Z,100508.56
2022-11-24T04:01:15.328Z,100518.97
2022-11-24T04:03:42.292Z,100522.59
2022-11-24T04:06:09.264Z,100520.50
2022-11-24T04:08:36.176Z,100524.16
2022-11-24T04:11:03.136Z,100524.16
2022-11-24T04:13:30.128Z,100524.91
2022-11-24T04:15:56.988Z,100529.34
2022-11-24T04:18:23.908Z,100530.88
2022-11-24T04:20:52.040Z,100535.56
2022-11-24T04:23:19.510Z,100539.97
2022-11-24T04:25:46.265Z,100547.75
2022-11-24T04:28:13.097Z,100546.47
2022-11-24T04:30:44.828Z,100551.41
2022-11-24T04:33:12.493Z,100546.97
2022-11-24T04:35:39.278Z,100550.63
2022-11-24T04:38:06.148Z,100551.66
2022-11-24T04:40:33.051Z,100562.03
2022-11-24T04:42:59.824Z,100562.03
2022-11-24T04:45:26.588Z,100561.00
2022-11-24T04:47:53.413Z,100570.34
2022-11-24T04:50:20.942Z,100575.53
2022-11-24T04:52:47.898Z,100581.78
2022-11-24T04:55:14.663Z,100591.63
2022-11-24T04:57:41.536Z,100599.94
2022-11-24T05:00:09.270Z,100600.69
2022-11-24T05:02:38.932Z,100601.75
2022-11-24T05:05:06.672Z,100598.09
2022-11-24T05:07:33.573Z,100607.72
2022-11-24T05:10:18.889Z,100609.28
2022-11-24T05:12:51.029Z,100619.38
2022-11-24T05:15:18.217Z,100621.22
2022-11-24T05:17:45.124Z,100630.56
2022-11-24T05:20:11.996Z,100639.41
2022-11-24T05:22:38.801Z,100645.66
2022-11-24T05:25:05.942Z,100641.72
2022-11-24T05:27:32.765Z,100651.09
2022-11-24T05:29:59.542Z,100653.19
2022-11-24T05:32:26.471Z,100655.53
2022-11-24T05:34:54.707Z,100664.09
2022-11-24T05:37:21.942Z,100661.75
2022-11-24T05:39:48.755Z,100664.59
2022-11-24T05:42:34.019Z,100676.31
2022-11-24T05:45:00.913Z,100674.72
2022-11-24T05:47:27.718Z,100679.41
2022-11-24T05:49:54.599Z,100687.72
2022-11-24T05:52:21.662Z,100691.63
2022-11-24T05:54:48.562Z,100701.75
2022-11-24T05:57:17.268Z,100703.84
2022-11-24T05:59:44.324Z,100716.81
2022-11-24T06:02:11.466Z,100716.03
2022-11-24T06:04:38.622Z,100722.00
2022-11-24T06:07:09.089Z,100722.00
2022-11-24T06:09:38.049Z,100730.31
2022-11-24T06:12:07.336Z,100734.72
2022-11-24T06:14:34.873Z,100744.31
2022-11-24T06:17:02.360Z,100751.06
2022-11-24T06:19:29.456Z,100762.22
2022-11-24T06:21:56.442Z,100754.16
2022-11-24T06:24:23.624Z,100755.75
2022-11-24T06:26:50.447Z,100764.06
2022-11-24T06:29:17.297Z,100769.25
2022-11-24T06:31:44.237Z,100779.63
2022-11-24T06:34:12.885Z,100787.91
2022-11-24T06:36:40.186Z,100788.72
2022-11-24T06:39:07.580Z,100791.03
2022-11-24T06:41:34.540Z,100801.41
2022-11-24T06:44:03.983Z,100806.59
2022-11-24T06:46:30.998Z,100815.44
2022-11-24T06:48:59.825Z,100816.97
2022-11-24T06:51:27.400Z,100819.84
2022-11-24T06:53:54.573Z,100825.81
2022-11-24T06:56:21.961Z,100825.81
2022-11-24T06:58:50.923Z,100834.09
2022-11-24T07:01:19.880Z,100834.13
2022-11-24T07:03:48.255Z,100844.50
2022-11-24T07:06:16.082Z,100843.97
2022-11-24T07:08:43.027Z,100852.25
2022-11-24T07:11:13.489Z,100861.63
2022-11-24T07:13:40.384Z,100852.25
2022-11-24T07:16:19.490Z,100870.16
2022-11-24T07:18:48.258Z,100867.56
2022-11-24T07:21:15.838Z,100868.34
2022-11-24T07:23:42.696Z,100869.41
2022-11-24T07:26:10.763Z,100878.72
2022-11-24T07:28:38.115Z,100884.44
2022-11-24T07:31:13.654Z,100882.38
2022-11-24T07:33:41.174Z,100882.13
2022-11-24T07:36:09.359Z,100882.91
2022-11-24T07:38:36.579Z,100897.44
2022-11-24T07:41:06.484Z,100895.88
2022-11-24T07:43:35.407Z,100907.81
2022-11-24T07:46:03.340Z,100910.19
2022-11-24T07:48:30.282Z,100916.91
2022-11-24T07:50:59.709Z,100927.56
2022-11-24T07:53:26.906Z,100927.56
2022-11-24T07:56:01.996Z,100924.72
2022-11-24T07:58:32.907Z,100928.88
2022-11-24T08:01:00.823Z,100935.63
2022-11-24T08:03:28.022Z,100956.94
2022-11-24T08:08:46.543Z,100963.41
2022-11-24T08:11:17.091Z,100965.78
2022-11-24T08:13:44.238Z,100966.28
2022-11-24T08:16:13.753Z,100975.91
2022-11-24T08:18:41.427Z,100976.44
2022-11-24T08:21:13.086Z,100978.25
2022-11-24T08:23:40.440Z,100978.53
2022-11-24T08:26:09.339Z,100976.47
2022-11-24T08:28:38.154Z,100972.56
2022-11-24T08:31:07.735Z,100975.44
2022-11-24T08:33:35.001Z,100981.41
2022-11-24T08:36:09.546Z,100985.06
2022-11-24T08:38:36.983Z,100988.19
2022-11-24T08:41:07.183Z,100991.31
2022-11-24T08:43:34.158Z,100995.72
2022-11-24T08:46:06.926Z,100999.88
2022-11-24T08:48:34.263Z,101008.72
2022-11-24T08:51:11.819Z,100999.38
2022-11-24T08:53:39.818Z,101003.56
2022-11-24T08:56:07.805Z,101011.09
2022-11-24T08:58:35.391Z,101017.31
2022-11-24T09:01:07.359Z,101019.41
2022-11-24T09:03:34.815Z,101015.75
2022-11-24T09:06:02.536Z,101025.34
2022-11-24T09:08:30.748Z,101024.28
2022-11-24T09:11:09.960Z,101024.00
2022-11-24T09:13:38.176Z,101030.00
2022-11-24T09:16:10.332Z,101038.09
2022-11-24T09:18:37.838Z,101034.72
2022-11-24T09:21:20.087Z,101038.09
2022-11-24T09:23:49.258Z,101041.44
2022-11-24T09:26:21.455Z,101050.81
2022-11-24T09:28:49.386Z,101045.09
2022-11-24T09:31:18.128Z,101055.00
2022-11-24T09:33:47.119Z,101059.66
2022-11-24T09:36:14.821Z,101063.31
2022-11-24T09:38:42.027Z,101063.34
2022-11-24T09:41:22.311Z,101068.28
2022-11-24T09:43:56.587Z,101071.94
2022-11-24T09:46:28.663Z,101081.03
2022-11-24T09:48:58.027Z,101075.06
2022-11-24T09:51:31.672Z,101084.19
2022-11-24T09:54:06.041Z,101091.47
2022-11-24T09:56:35.774Z,101097.19
2022-11-24T09:59:10.776Z,101095.63
2022-11-24T10:01:42.068Z,101101.38
2022-11-24T10:04:25.347Z,101103.44
2022-11-24T10:07:09.679Z,101106.56
2022-11-24T10:09:51.893Z,101109.19
2022-11-24T10:12:36.852Z,101118.56
2022-11-24T10:15:15.754Z,101114.66
2022-11-24T10:17:54.697Z,101121.72
2022-11-24T10:21:03.155Z,101118.56
2022-11-24T10:24:02.125Z,101127.94
2022-11-24T10:26:37.436Z,101132.38
2022-11-24T10:29:31.061Z,101129.53
2022-11-24T10:31:58.188Z,101139.41
2022-11-24T10:34:32.797Z,101140.94
2022-11-24T10:37:14.309Z,101146.69
2022-11-24T10:39:44.109Z,101151.91
2022-11-24T10:42:15.810Z,101157.63
2022-11-24T10:44:43.288Z,101151.88
2022-11-24T10:47:19.499Z,101159.19
2022-11-24T10:50:36.463Z,101161.81
2022-11-24T10:53:25.913Z,101164.41
2022-11-24T10:55:56.003Z,101161.81
2022-11-24T10:58:36.078Z,101164.94
2022-11-24T11:01:13.477Z,101164.91
2022-11-24T11:03:48.100Z,101172.22
2022-11-24T11:06:29.726Z,101162.31
2022-11-24T11:09:10.794Z,101175.34
2022-11-24T11:11:40.181Z,101173.00
2022-11-24T11:14:10.266Z,101181.06
2022-11-24T11:16:54.818Z,101180.53
2022-11-24T11:19:49.819Z,101184.72
2022-11-24T11:22:35.322Z,101170.63
2022-11-24T11:25:18.281Z,101169.34
2022-11-24T11:27:45.624Z,101179.22
2022-11-24T11:36:14.405Z,101178.97
2022-11-24T11:38:46.221Z,101173.22
2022-11-24T11:41:24.512Z,101173.22
2022-11-24T11:44:05.114Z,101168.75
2022-11-24T11:46:34.037Z,101177.34
2022-11-24T11:49:01.373Z,101173.16
2022-11-24T11:51:52.566Z,101167.94
2022-11-24T11:54:25.698Z,101169.50
2022-11-24T11:57:15.929Z,101174.16
2022-11-24T11:59:45.766Z,101175.19
2022-11-24T12:02:34.605Z,101175.19
2022-11-24T12:05:27.654Z,101166.34
2022-11-24T12:08:23.647Z,101184.53
2022-11-24T12:11:01.897Z,101180.91
2022-11-24T12:13:56.501Z,101177.47
2022-11-24T12:16:55.760Z,101181.38
2022-11-24T12:19:31.543Z,101176.66
2022-11-24T12:22:20.479Z,101178.44
2022-11-24T12:25:00.776Z,101178.66
2022-11-24T12:27:47.512Z,101175.25
2022-11-24T12:30:19.777Z,101185.13
2022-11-24T12:33:31.573Z,101176.75
2022-11-24T12:36:10.916Z,101181.94
2022-11-24T12:38:44.364Z,101174.34
2022-11-24T12:41:42.950Z,101174.03
2022-11-24T12:44:22.202Z,101183.16
2022-11-24T12:47:24.346Z,101181.31
2022-11-24T12:50:12.102Z,101201.41
2022-11-24T12:52:54.112Z,101198.50
2022-11-24T12:55:25.671Z,101204.53
2022-11-24T12:58:18.383Z,101210.50
2022-11-24T13:01:22.756Z,101205.22
2022-11-24T13:04:07.805Z,101208.31
2022-11-24T13:07:00.118Z,101201.75
2022-11-24T13:09:26.946Z,101194.16
2022-11-24T13:12:08.476Z,101193.88
2022-11-24T13:14:38.212Z,101192.09
2022-11-24T13:17:38.338Z,101199.75
2022-11-24T13:20:33.517Z,101202.13
2022-11-24T13:23:05.780Z,101195.09
2022-11-24T13:25:36.159Z,101201.13
2022-11-24T13:28:06.741Z,101193.78
2022-11-24T13:30:33.466Z,101196.19
2022-11-24T13:33:03.890Z,101195.94
2022-11-24T13:35:31.048Z,101194.94
2022-11-24T13:37:57.946Z,101204.34
2022-11-24T13:40:26.525Z,101189.50
2022-11-24T13:42:57.661Z,101199.44
2022-11-24T13:45:40.318Z,101195.00
2022-11-24T13:48:14.035Z,101198.44
2022-11-24T13:50:50.184Z,101205.25
2022-11-24T13:53:45.437Z,101194.56
2022-11-24T13:56:12.185Z,101193.78
2022-11-24T13:58:50.492Z,101204.22
2022-11-24T14:01:26.439Z,101198.78
2022-11-24T14:04:32.089Z,101194.88
2022-11-24T14:07:14.710Z,101191.50
2022-11-24T14:09:41.679Z,101195.44
2022-11-24T14:12:26.368Z,101186.31
2022-11-24T14:14:57.416Z,101199.63
2022-11-24T14:17:28.626Z,101201.72
2022-11-24T14:19:57.832Z,101190.78
2022-11-24T14:22:32.925Z,101177.47
2022-11-24T14:25:01.761Z,101184.53
2022-11-24T14:27:39.241Z,101182.22
2022-11-24T14:30:20.862Z,101181.47
2022-11-24T14:32:59.615Z,101178.59
2022-11-24T14:35:26.747Z,101184.34
2022-11-24T14:37:53.800Z,101180.47
2022-11-24T14:40:55.228Z,101177.59
2022-11-24T14:43:32.942Z,101185.19
2022-11-24T14:46:02.318Z,101195.63
2022-11-24T14:48:38.422Z,101191.47
2022-11-24T14:51:13.722Z,101192.50
2022-11-24T14:53:45.827Z,101185.22
2022-11-24T14:56:34.694Z,101185.75
2022-11-24T14:59:02.629Z,101186.53
2022-11-24T15:01:33.050Z,101184.97
2022-11-24T15:04:46.712Z,101189.63
2022-11-24T15:07:13.895Z,101189.13
2022-11-24T15:09:43.683Z,101189.13
2022-11-24T15:12:23.479Z,101192.50
2022-11-24T15:14:52.225Z,101195.63
2022-11-24T15:17:23.814Z,101199.25
2022-11-24T15:20:09.872Z,101190.91
2022-11-24T15:22:40.305Z,101194.28
2022-11-24T15:25:30.116Z,101199.22
2022-11-24T15:27:57.639Z,101191.94
2022-11-24T15:30:25.013Z,101200.25
2022-11-24T15:32:57.334Z,101200.22
2022-11-24T15:35:26.698Z,101209.59
2022-11-24T15:37:53.754Z,101209.56
2022-11-24T15:40:20.763Z,101212.94
2022-11-24T15:42:55.621Z,101212.94
2022-11-24T15:45:24.892Z,101211.88
2022-11-24T15:47:51.720Z,101199.09
2022-11-24T15:50:19.849Z,101203.22
2022-11-24T15:52:47.730Z,101206.59
2022-11-24T15:55:20.274Z,101197.22
2022-11-24T15:57:48.226Z,101198.47
2022-11-24T16:00:20.360Z,101194.81
2022-11-24T16:02:47.356Z,101205.47
2022-11-24T16:05:15.131Z,101197.91
2022-11-24T16:07:42.488Z,101197.84
2022-11-24T16:10:25.308Z,101204.09
2022-11-24T16:12:52.219Z,101205.13
2022-11-24T16:15:18.962Z,101203.56
2022-11-24T16:17:45.767Z,101199.91
2022-11-24T16:20:12.865Z,101200.63
2022-11-24T16:22:39.911Z,101194.66
2022-11-24T16:25:08.494Z,101196.72
2022-11-24T16:27:35.353Z,101196.19
2022-11-24T16:30:02.416Z,101193.31
2022-11-24T16:32:29.310Z,101196.19
2022-11-24T16:34:56.194Z,101210.44
2022-11-24T16:37:23.356Z,101207.31
2022-11-24T16:39:50.785Z,101208.06
2022-11-24T16:42:17.808Z,101211.16
2022-11-24T16:44:44.778Z,101218.97
2022-11-24T16:47:13.207Z,101210.88
2022-11-24T16:49:40.183Z,101218.66
2022-11-24T16:52:08.660Z,101208.00
2022-11-24T16:54:37.094Z,101205.94
2022-11-24T16:57:04.205Z,101205.41
2022-11-24T16:59:31.162Z,101198.09
2022-11-24T17:01:57.971Z,101198.34
2022-11-24T17:04:25.972Z,101205.06
2022-11-24T17:06:52.768Z,101199.59
2022-11-24T17:09:19.640Z,101206.06
2022-11-24T17:11:46.691Z,101202.94
2022-11-24T17:14:14.829Z,101202.13
2022-11-24T17:16:41.852Z,101199.53
2022-11-24T17:19:08.917Z,101202.13
2022-11-24T17:21:35.859Z,101190.44
2022-11-24T17:24:06.927Z,101196.94
2022-11-24T17:26:34.081Z,101201.66
2022-11-24T17:29:01.129Z,101203.22
2022-11-24T17:31:32.293Z,101201.16
2022-11-24T17:34:00.622Z,101204.03
2022-11-24T17:36:29.606Z,101202.75
2022-11-24T17:38:56.906Z,101200.69
2022-11-24T17:41:23.833Z,101205.63
2022-11-24T17:43:51.859Z,101199.66
2022-11-24T17:46:19.405Z,101204.84
2022-11-24T17:48:47.152Z,101211.59
2022-11-24T17:51:16.528Z,101205.09
2022-11-24T17:53:46.146Z,101208.44
2022-11-24T17:56:18.803Z,101213.09
2022-11-24T17:58:45.723Z,101201.16
2022-11-24T18:01:13.703Z,101207.13
2022-11-24T18:03:41.421Z,101194.41
2022-11-24T18:06:13.585Z,101204.03
2022-11-24T18:08:42.800Z,101197.03
2022-11-24T18:11:24.673Z,101209.75
2022-11-24T18:14:00.773Z,101212.59
2022-11-24T18:16:30.558Z,101215.50
2022-11-24T18:19:11.024Z,101208.47
2022-11-24T18:21:42.387Z,101213.44
2022-11-24T18:24:10.694Z,101219.94
2022-11-24T18:26:38.391Z,101214.50
2022-11-24T18:29:05.447Z,101205.94
2022-11-24T18:31:34.474Z,101201.28
2022-11-24T18:34:02.720Z,101207.00
2022-11-24T18:36:30.800Z,101200.25
2022-11-24T18:39:02.401Z,101195.84
2022-11-24T18:41:29.319Z,101198.19
2022-11-24T18:43:56.158Z,101193.00
2022-11-24T18:46:23.192Z,101190.63
2022-11-24T18:48:52.198Z,101195.84
2022-11-24T18:51:19.588Z,101195.31
2022-11-24T18:53:50.715Z,101195.53
2022-11-24T18:56:18.133Z,101202.03
2022-11-24T18:58:45.548Z,101197.84
2022-11-24T19:01:17.956Z,101191.88
2022-11-24T19:03:50.475Z,101196.53
2022-11-24T19:06:20.223Z,101188.47
2022-11-24T19:08:49.093Z,101188.16
2022-11-24T19:11:18.158Z,101179.31
2022-11-24T19:13:45.318Z,101187.38
2022-11-24T19:16:13.087Z,101186.03
2022-11-24T19:18:40.163Z,101169.91
2022-11-24T19:21:07.359Z,101183.94
2022-11-24T19:23:34.917Z,101183.41
2022-11-24T19:26:02.933Z,101179.75
2022-11-24T19:28:30.153Z,101171.75
2022-11-24T19:31:01.627Z,101166.78
2022-11-24T19:33:28.496Z,101162.13
2022-11-24T19:36:14.945Z,101164.94
2022-11-24T19:38:43.418Z,101170.63
2022-11-24T19:41:12.721Z,101165.19
2022-11-24T19:43:40.835Z,101172.19
2022-11-24T19:46:10.222Z,101163.88
2022-11-24T19:48:50.270Z,101165.66
2022-11-24T19:51:30.633Z,101171.59
2022-11-24T19:53:58.388Z,101168.78
2022-11-24T19:56:27.707Z,101173.97
2022-11-24T19:58:56.116Z,101172.41
2022-11-24T20:01:27.262Z,101186.41
2022-11-24T20:04:01.534Z,101189.22
2022-11-24T20:06:31.330Z,101182.25
2022-11-24T20:09:00.671Z,101180.13
2022-11-24T20:11:28.835Z,101180.69
2022-11-24T20:13:56.789Z,101181.72
2022-11-24T20:16:30.050Z,101177.53
2022-11-24T20:19:02.333Z,101180.13
2022-11-24T20:21:33.025Z,101174.19
2022-11-24T20:24:06.206Z,101174.72
2022-11-24T20:26:35.902Z,101174.94
2022-11-24T20:29:04.143Z,101171.59
2022-11-24T20:31:34.149Z,101177.00
2022-11-24T20:34:02.775Z,101162.22
2022-11-24T20:36:31.335Z,101173.13
2022-11-24T20:39:00.861Z,101166.16
2022-11-24T20:41:30.519Z,101174.47
2022-11-24T20:44:00.968Z,101166.72
2022-11-24T20:46:30.798Z,101173.47
2022-11-24T20:48:58.319Z,101171.41
2022-11-24T20:51:31.704Z,101166.22
2022-11-24T20:54:01.437Z,101156.38
2022-11-24T20:56:31.168Z,101163.19
2022-11-24T20:58:59.363Z,101167.84
2022-11-24T21:01:29.787Z,101169.47
2022-11-24T21:03:59.024Z,101161.19
2022-11-24T21:06:28.404Z,101168.47
2022-11-24T21:09:01.965Z,101162.75
2022-11-24T21:11:31.368Z,101167.16
2022-11-24T21:13:58.781Z,101158.06
2022-11-24T21:16:28.798Z,101170.28
2022-11-24T21:19:01.522Z,101164.84
2022-11-24T21:21:34.187Z,101164.88
2022-11-24T21:24:02.845Z,101158.94
2022-11-24T21:26:30.082Z,101157.41
2022-11-24T21:28:57.554Z,101150.66
2022-11-24T21:31:24.563Z,101145.22
2022-11-24T21:33:53.465Z,101154.56
2022-11-24T21:36:25.369Z,101154.56
2022-11-24T21:38:57.214Z,101154.06
2022-11-24T21:41:26.729Z,101142.66
2022-11-24T21:43:56.093Z,101153.56
2022-11-24T21:46:23.747Z,101147.84
2022-11-24T21:48:51.132Z,101144.72
2022-11-24T21:51:20.417Z,101144.19
2022-11-24T21:53:47.795Z,101139.53
2022-11-24T21:56:17.599Z,101137.72
2022-11-24T21:58:46.035Z,101141.06
2022-11-24T22:01:13.788Z,101130.94
2022-11-24T22:03:40.958Z,101134.34
2022-11-24T22:06:08.513Z,101126.03
2022-11-24T22:08:35.950Z,101126.03
2022-11-24T22:11:08.641Z,101122.41
2022-11-24T22:13:35.909Z,101124.72
2022-11-24T22:16:07.835Z,101116.69
2022-11-24T22:18:36.925Z,101120.34
2022-11-24T22:21:05.003Z,101115.69
2022-11-24T22:23:33.174Z,101114.91
2022-11-24T22:26:17.481Z,101112.84
2022-11-24T22:28:45.430Z,101117.78
2022-11-24T22:31:19.448Z,101122.47
2022-11-24T22:33:48.583Z,101120.63
2022-11-24T22:36:17.183Z,101121.16
2022-11-24T22:38:44.429Z,101126.66
2022-11-24T22:41:14.419Z,101123.53
2022-11-24T22:43:42.868Z,101120.94
2022-11-24T22:46:21.501Z,101110.81
2022-11-24T22:48:49.936Z,101117.31
2022-11-24T22:51:19.425Z,101114.97
2022-11-24T22:53:55.317Z,101118.59
2022-11-24T22:56:23.086Z,101123.53
2022-11-24T22:58:50.875Z,101120.41
2022-11-24T23:01:23.366Z,101124.34
2022-11-24T23:03:53.833Z,101130.06
2022-11-24T23:06:23.274Z,101120.44
2022-11-24T23:08:51.023Z,101120.44
2022-11-24T23:11:36.403Z,101123.03
2022-11-24T23:14:06.813Z,101135.25
2022-11-24T23:16:33.707Z,101123.28
2022-11-24T23:19:00.658Z,101121.22
2022-11-24T23:21:32.152Z,101118.84
2022-11-24T23:24:01.300Z,101111.06
2022-11-24T23:26:30.469Z,101114.47
2022-11-24T23:28:57.388Z,101120.44
2022-11-24T23:31:29.770Z,101112.41
2022-11-24T23:34:02.180Z,101114.19
2022-11-24T23:36:30.157Z,101106.41
2022-11-24T23:39:01.745Z,101103.81
2022-11-24T23:41:30.889Z,101099.13
2022-11-24T23:43:58.139Z,101094.47
2022-11-24T23:46:26.871Z,101090.31
2022-11-24T23:48:54.955Z,101105.66
2022-11-24T23:51:30.167Z,101094.47
2022-11-24T23:53:58.350Z,101102.00
2022-11-24T23:56:30.803Z,101099.41
